sensor_id;sensor_type;location;lat;lon;timestamp;P1;durP1;ratioP1;P2;durP2;ratioP2
26920;SDS011;14483;47.844;9.660;2023-04-15T00:00:13;2.13;;;0.63;;
26920;SDS011;14483;47.844;9.660;2023-04-15T00:02:41;2.85;;;0.80;;
26920;SDS011;14483;47.844;9.660;2023-04-15T00:05:08;3.60;;;0.70;;
26920;SDS011;14483;47.844;9.660;2023-04-15T00:07:34;4.50;;;1.13;;
26920;SDS011;14483;47.844;9.660;2023-04-15T00:10:01;1.58;;;0.55;;
26920;SDS011;14483;47.844;9.660;2023-04-15T00:12:28;4.70;;;0.57;;
26920;SDS011;14483;47.844;9.660;2023-04-15T00:14:54;2.95;;;1.23;;
26920;SDS011;14483;47.844;9.660;2023-04-15T00:17:22;2.83;;;0.82;;
26920;SDS011;14483;47.844;9.660;2023-04-15T00:19:50;2.10;;;0.88;;
26920;SDS011;14483;47.844;9.660;2023-04-15T00:22:16;2.03;;;0.75;;
26920;SDS011;14483;47.844;9.660;2023-04-15T00:24:43;2.65;;;0.80;;
26920;SDS011;14483;47.844;9.660;2023-04-15T00:27:09;2.58;;;0.80;;
26920;SDS011;14483;47.844;9.660;2023-04-15T00:29:35;5.80;;;1.05;;
26920;SDS011;14483;47.844;9.660;2023-04-15T00:32:02;3.45;;;0.93;;
26920;SDS011;14483;47.844;9.660;2023-04-15T00:34:28;5.22;;;2.38;;
26920;SDS011;14483;47.844;9.660;2023-04-15T00:36:56;1.95;;;0.90;;
26920;SDS011;14483;47.844;9.660;2023-04-15T00:39:22;1.73;;;0.80;;
26920;SDS011;14483;47.844;9.660;2023-04-15T00:41:49;1.80;;;0.80;;
26920;SDS011;14483;47.844;9.660;2023-04-15T00:44:15;4.05;;;0.90;;
26920;SDS011;14483;47.844;9.660;2023-04-15T00:46:42;2.88;;;0.70;;
26920;SDS011;14483;47.844;9.660;2023-04-15T00:49:09;7.50;;;1.30;;
26920;SDS011;14483;47.844;9.660;2023-04-15T00:51:35;5.47;;;1.10;;
26920;SDS011;14483;47.844;9.660;2023-04-15T00:54:03;3.58;;;0.90;;
26920;SDS011;14483;47.844;9.660;2023-04-15T00:56:30;7.15;;;1.20;;
26920;SDS011;14483;47.844;9.660;2023-04-15T00:59:00;3.92;;;1.10;;
26920;SDS011;14483;47.844;9.660;2023-04-15T01:01:26;2.72;;;1.00;;
26920;SDS011;14483;47.844;9.660;2023-04-15T01:03:54;3.10;;;1.02;;
26920;SDS011;14483;47.844;9.660;2023-04-15T01:06:21;2.28;;;1.02;;
26920;SDS011;14483;47.844;9.660;2023-04-15T01:08:48;3.38;;;0.70;;
26920;SDS011;14483;47.844;9.660;2023-04-15T01:11:16;4.82;;;1.10;;
26920;SDS011;14483;47.844;9.660;2023-04-15T01:13:42;2.25;;;0.80;;
26920;SDS011;14483;47.844;9.660;2023-04-15T01:16:09;4.70;;;1.38;;
26920;SDS011;14483;47.844;9.660;2023-04-15T01:18:36;2.55;;;1.00;;
26920;SDS011;14483;47.844;9.660;2023-04-15T01:21:03;2.00;;;0.90;;
26920;SDS011;14483;47.844;9.660;2023-04-15T01:23:29;2.30;;;0.80;;
26920;SDS011;14483;47.844;9.660;2023-04-15T01:25:58;3.10;;;0.80;;
26920;SDS011;14483;47.844;9.660;2023-04-15T01:28:24;2.30;;;0.90;;
26920;SDS011;14483;47.844;9.660;2023-04-15T01:31:03;4.75;;;1.02;;
26920;SDS011;14483;47.844;9.660;2023-04-15T01:33:31;2.35;;;1.10;;
26920;SDS011;14483;47.844;9.660;2023-04-15T01:35:57;3.92;;;1.02;;
26920;SDS011;14483;47.844;9.660;2023-04-15T01:38:25;4.32;;;1.13;;
26920;SDS011;14483;47.844;9.660;2023-04-15T01:40:52;3.17;;;1.20;;
26920;SDS011;14483;47.844;9.660;2023-04-15T01:43:20;2.53;;;1.00;;
26920;SDS011;14483;47.844;9.660;2023-04-15T01:45:46;7.40;;;1.23;;
26920;SDS011;14483;47.844;9.660;2023-04-15T01:48:12;3.08;;;1.20;;
26920;SDS011;14483;47.844;9.660;2023-04-15T01:50:39;2.00;;;1.05;;
26920;SDS011;14483;47.844;9.660;2023-04-15T01:53:05;4.00;;;1.10;;
26920;SDS011;14483;47.844;9.660;2023-04-15T01:55:32;3.47;;;0.98;;
26920;SDS011;14483;47.844;9.660;2023-04-15T01:57:58;3.00;;;1.00;;
26920;SDS011;14483;47.844;9.660;2023-04-15T02:00:26;2.55;;;0.95;;
26920;SDS011;14483;47.844;9.660;2023-04-15T02:02:53;2.80;;;0.98;;
26920;SDS011;14483;47.844;9.660;2023-04-15T02:05:19;3.25;;;1.25;;
26920;SDS011;14483;47.844;9.660;2023-04-15T02:07:45;4.93;;;0.98;;
26920;SDS011;14483;47.844;9.660;2023-04-15T02:10:12;3.10;;;1.00;;
26920;SDS011;14483;47.844;9.660;2023-04-15T02:12:39;5.85;;;0.90;;
26920;SDS011;14483;47.844;9.660;2023-04-15T02:15:06;2.88;;;1.10;;
26920;SDS011;14483;47.844;9.660;2023-04-15T02:17:34;4.07;;;1.35;;
26920;SDS011;14483;47.844;9.660;2023-04-15T02:20:01;2.67;;;0.90;;
26920;SDS011;14483;47.844;9.660;2023-04-15T02:22:28;4.05;;;1.38;;
26920;SDS011;14483;47.844;9.660;2023-04-15T02:24:55;2.40;;;0.88;;
26920;SDS011;14483;47.844;9.660;2023-04-15T02:27:21;2.10;;;0.80;;
26920;SDS011;14483;47.844;9.660;2023-04-15T02:29:47;5.05;;;1.05;;
26920;SDS011;14483;47.844;9.660;2023-04-15T02:32:15;2.90;;;1.00;;
26920;SDS011;14483;47.844;9.660;2023-04-15T02:34:44;4.00;;;1.08;;
26920;SDS011;14483;47.844;9.660;2023-04-15T02:37:10;2.90;;;0.95;;
26920;SDS011;14483;47.844;9.660;2023-04-15T02:39:37;2.17;;;1.05;;
26920;SDS011;14483;47.844;9.660;2023-04-15T02:42:04;4.38;;;1.60;;
26920;SDS011;14483;47.844;9.660;2023-04-15T02:44:31;3.53;;;1.20;;
26920;SDS011;14483;47.844;9.660;2023-04-15T02:46:59;3.42;;;1.35;;
26920;SDS011;14483;47.844;9.660;2023-04-15T02:49:25;2.60;;;1.00;;
26920;SDS011;14483;47.844;9.660;2023-04-15T02:51:55;2.53;;;1.10;;
26920;SDS011;14483;47.844;9.660;2023-04-15T02:54:22;2.60;;;0.95;;
26920;SDS011;14483;47.844;9.660;2023-04-15T02:56:48;3.42;;;1.10;;
26920;SDS011;14483;47.844;9.660;2023-04-15T02:59:16;4.15;;;1.05;;
26920;SDS011;14483;47.844;9.660;2023-04-15T03:01:42;3.55;;;1.10;;
26920;SDS011;14483;47.844;9.660;2023-04-15T03:04:08;1.48;;;0.60;;
26920;SDS011;14483;47.844;9.660;2023-04-15T03:06:35;2.15;;;0.90;;
26920;SDS011;14483;47.844;9.660;2023-04-15T03:09:03;3.83;;;1.10;;
26920;SDS011;14483;47.844;9.660;2023-04-15T03:11:29;2.97;;;0.80;;
26920;SDS011;14483;47.844;9.660;2023-04-15T03:13:56;3.47;;;1.05;;
26920;SDS011;14483;47.844;9.660;2023-04-15T03:16:22;1.45;;;0.80;;
26920;SDS011;14483;47.844;9.660;2023-04-15T03:18:48;2.42;;;0.80;;
26920;SDS011;14483;47.844;9.660;2023-04-15T03:21:15;3.10;;;0.90;;
26920;SDS011;14483;47.844;9.660;2023-04-15T03:23:41;2.15;;;0.80;;
26920;SDS011;14483;47.844;9.660;2023-04-15T03:26:09;4.45;;;1.10;;
26920;SDS011;14483;47.844;9.660;2023-04-15T03:28:35;5.35;;;1.25;;
26920;SDS011;14483;47.844;9.660;2023-04-15T03:31:01;2.25;;;0.90;;
26920;SDS011;14483;47.844;9.660;2023-04-15T03:33:28;2.30;;;0.90;;
26920;SDS011;14483;47.844;9.660;2023-04-15T03:35:54;3.28;;;0.70;;
26920;SDS011;14483;47.844;9.660;2023-04-15T03:38:21;1.58;;;0.82;;
26920;SDS011;14483;47.844;9.660;2023-04-15T03:40:47;2.70;;;1.13;;
26920;SDS011;14483;47.844;9.660;2023-04-15T03:43:15;3.03;;;0.70;;
26920;SDS011;14483;47.844;9.660;2023-04-15T03:45:41;3.53;;;1.00;;
26920;SDS011;14483;47.844;9.660;2023-04-15T03:48:08;2.50;;;0.55;;
26920;SDS011;14483;47.844;9.660;2023-04-15T03:50:34;1.42;;;0.70;;
26920;SDS011;14483;47.844;9.660;2023-04-15T03:53:01;2.42;;;0.68;;
26920;SDS011;14483;47.844;9.660;2023-04-15T03:55:27;5.78;;;1.05;;
26920;SDS011;14483;47.844;9.660;2023-04-15T03:57:53;2.92;;;0.65;;
26920;SDS011;14483;47.844;9.660;2023-04-15T04:00:21;2.47;;;0.90;;
26920;SDS011;14483;47.844;9.660;2023-04-15T04:02:47;2.75;;;0.80;;
26920;SDS011;14483;47.844;9.660;2023-04-15T04:05:14;2.33;;;1.25;;
26920;SDS011;14483;47.844;9.660;2023-04-15T04:07:40;3.95;;;0.93;;
26920;SDS011;14483;47.844;9.660;2023-04-15T04:10:07;3.60;;;0.80;;
26920;SDS011;14483;47.844;9.660;2023-04-15T04:12:33;2.85;;;0.80;;
26920;SDS011;14483;47.844;9.660;2023-04-15T04:15:00;1.90;;;0.55;;
26920;SDS011;14483;47.844;9.660;2023-04-15T04:17:27;3.58;;;1.15;;
26920;SDS011;14483;47.844;9.660;2023-04-15T04:19:54;5.03;;;0.88;;
26920;SDS011;14483;47.844;9.660;2023-04-15T04:22:21;2.08;;;0.80;;
26920;SDS011;14483;47.844;9.660;2023-04-15T04:24:47;3.85;;;0.65;;
26920;SDS011;14483;47.844;9.660;2023-04-15T04:27:13;2.22;;;1.17;;
26920;SDS011;14483;47.844;9.660;2023-04-15T04:29:40;2.17;;;0.70;;
26920;SDS011;14483;47.844;9.660;2023-04-15T04:32:06;1.75;;;1.10;;
26920;SDS011;14483;47.844;9.660;2023-04-15T04:34:34;2.33;;;0.95;;
26920;SDS011;14483;47.844;9.660;2023-04-15T04:37:00;1.58;;;0.75;;
26920;SDS011;14483;47.844;9.660;2023-04-15T04:39:26;2.22;;;1.00;;
26920;SDS011;14483;47.844;9.660;2023-04-15T04:41:53;2.78;;;1.08;;
26920;SDS011;14483;47.844;9.660;2023-04-15T04:44:20;1.73;;;0.90;;
26920;SDS011;14483;47.844;9.660;2023-04-15T04:46:46;2.63;;;0.80;;
26920;SDS011;14483;47.844;9.660;2023-04-15T04:49:12;6.18;;;1.00;;
26920;SDS011;14483;47.844;9.660;2023-04-15T04:51:40;2.45;;;0.90;;
26920;SDS011;14483;47.844;9.660;2023-04-15T04:54:06;4.93;;;1.50;;
26920;SDS011;14483;47.844;9.660;2023-04-15T04:56:33;8.88;;;3.42;;
26920;SDS011;14483;47.844;9.660;2023-04-15T04:59:00;10.02;;;4.55;;
26920;SDS011;14483;47.844;9.660;2023-04-15T05:01:26;4.68;;;2.42;;
26920;SDS011;14483;47.844;9.660;2023-04-15T05:03:53;5.47;;;1.52;;
26920;SDS011;14483;47.844;9.660;2023-04-15T05:06:19;2.80;;;1.42;;
26920;SDS011;14483;47.844;9.660;2023-04-15T05:08:47;2.83;;;1.08;;
26920;SDS011;14483;47.844;9.660;2023-04-15T05:11:13;2.38;;;0.82;;
26920;SDS011;14483;47.844;9.660;2023-04-15T05:13:40;3.85;;;0.90;;
26920;SDS011;14483;47.844;9.660;2023-04-15T05:16:06;2.08;;;0.80;;
26920;SDS011;14483;47.844;9.660;2023-04-15T05:18:33;5.55;;;0.90;;
26920;SDS011;14483;47.844;9.660;2023-04-15T05:21:00;3.15;;;0.73;;
26920;SDS011;14483;47.844;9.660;2023-04-15T05:23:27;3.60;;;0.85;;
26920;SDS011;14483;47.844;9.660;2023-04-15T05:25:55;3.38;;;1.25;;
26920;SDS011;14483;47.844;9.660;2023-04-15T05:28:21;2.75;;;0.90;;
26920;SDS011;14483;47.844;9.660;2023-04-15T05:30:47;3.03;;;1.05;;
26920;SDS011;14483;47.844;9.660;2023-04-15T05:33:14;5.07;;;1.05;;
26920;SDS011;14483;47.844;9.660;2023-04-15T05:35:40;3.38;;;0.95;;
26920;SDS011;14483;47.844;9.660;2023-04-15T05:38:06;3.53;;;1.20;;
26920;SDS011;14483;47.844;9.660;2023-04-15T05:40:33;3.30;;;1.45;;
26920;SDS011;14483;47.844;9.660;2023-04-15T05:43:00;6.30;;;3.10;;
26920;SDS011;14483;47.844;9.660;2023-04-15T05:45:27;5.97;;;2.92;;
26920;SDS011;14483;47.844;9.660;2023-04-15T05:47:53;5.72;;;2.22;;
26920;SDS011;14483;47.844;9.660;2023-04-15T05:50:20;7.82;;;2.70;;
26920;SDS011;14483;47.844;9.660;2023-04-15T05:52:46;9.00;;;3.60;;
26920;SDS011;14483;47.844;9.660;2023-04-15T05:55:12;10.30;;;3.33;;
26920;SDS011;14483;47.844;9.660;2023-04-15T05:57:39;9.00;;;3.15;;
26920;SDS011;14483;47.844;9.660;2023-04-15T06:00:07;6.93;;;3.47;;
26920;SDS011;14483;47.844;9.660;2023-04-15T06:02:34;8.68;;;3.92;;
26920;SDS011;14483;47.844;9.660;2023-04-15T06:05:00;12.98;;;2.67;;
26920;SDS011;14483;47.844;9.660;2023-04-15T06:07:27;6.57;;;2.58;;
26920;SDS011;14483;47.844;9.660;2023-04-15T06:09:53;2.78;;;1.58;;
26920;SDS011;14483;47.844;9.660;2023-04-15T06:12:20;6.88;;;2.30;;
26920;SDS011;14483;47.844;9.660;2023-04-15T06:14:46;5.25;;;2.35;;
26920;SDS011;14483;47.844;9.660;2023-04-15T06:17:14;7.35;;;2.45;;
26920;SDS011;14483;47.844;9.660;2023-04-15T06:19:42;9.80;;;2.63;;
26920;SDS011;14483;47.844;9.660;2023-04-15T06:22:08;9.48;;;2.25;;
26920;SDS011;14483;47.844;9.660;2023-04-15T06:24:35;6.38;;;2.25;;
26920;SDS011;14483;47.844;9.660;2023-04-15T06:27:02;7.53;;;2.53;;
26920;SDS011;14483;47.844;9.660;2023-04-15T06:29:28;5.55;;;1.77;;
26920;SDS011;14483;47.844;9.660;2023-04-15T06:31:54;6.80;;;2.22;;
26920;SDS011;14483;47.844;9.660;2023-04-15T06:34:22;6.20;;;2.08;;
26920;SDS011;14483;47.844;9.660;2023-04-15T06:36:49;6.22;;;2.17;;
26920;SDS011;14483;47.844;9.660;2023-04-15T06:39:15;9.32;;;2.28;;
26920;SDS011;14483;47.844;9.660;2023-04-15T06:41:41;7.28;;;2.42;;
26920;SDS011;14483;47.844;9.660;2023-04-15T06:44:08;5.47;;;2.08;;
26920;SDS011;14483;47.844;9.660;2023-04-15T06:46:34;6.90;;;2.90;;
26920;SDS011;14483;47.844;9.660;2023-04-15T06:49:01;16.58;;;2.90;;
26920;SDS011;14483;47.844;9.660;2023-04-15T06:51:29;10.35;;;3.30;;
26920;SDS011;14483;47.844;9.660;2023-04-15T06:53:55;9.15;;;3.60;;
26920;SDS011;14483;47.844;9.660;2023-04-15T06:56:21;11.52;;;3.30;;
26920;SDS011;14483;47.844;9.660;2023-04-15T06:58:48;5.43;;;2.40;;
26920;SDS011;14483;47.844;9.660;2023-04-15T07:01:14;7.75;;;2.38;;
26920;SDS011;14483;47.844;9.660;2023-04-15T07:03:41;4.00;;;1.50;;
26920;SDS011;14483;47.844;9.660;2023-04-15T07:06:07;5.93;;;1.67;;
26920;SDS011;14483;47.844;9.660;2023-04-15T07:08:35;3.25;;;1.65;;
26920;SDS011;14483;47.844;9.660;2023-04-15T07:11:01;5.20;;;2.05;;
26920;SDS011;14483;47.844;9.660;2023-04-15T07:13:29;8.15;;;2.22;;
26920;SDS011;14483;47.844;9.660;2023-04-15T07:15:56;4.35;;;1.45;;
26920;SDS011;14483;47.844;9.660;2023-04-15T07:18:22;4.22;;;1.80;;
26920;SDS011;14483;47.844;9.660;2023-04-15T07:20:49;2.42;;;1.25;;
26920;SDS011;14483;47.844;9.660;2023-04-15T07:23:15;2.65;;;1.23;;
26920;SDS011;14483;47.844;9.660;2023-04-15T07:25:43;4.65;;;1.48;;
26920;SDS011;14483;47.844;9.660;2023-04-15T07:28:10;7.85;;;1.10;;
26920;SDS011;14483;47.844;9.660;2023-04-15T07:30:36;2.47;;;1.10;;
26920;SDS011;14483;47.844;9.660;2023-04-15T07:33:03;2.85;;;0.90;;
26920;SDS011;14483;47.844;9.660;2023-04-15T07:35:29;2.88;;;1.15;;
26920;SDS011;14483;47.844;9.660;2023-04-15T07:37:56;4.07;;;1.02;;
26920;SDS011;14483;47.844;9.660;2023-04-15T07:40:22;2.97;;;1.20;;
26920;SDS011;14483;47.844;9.660;2023-04-15T07:42:50;2.63;;;1.08;;
26920;SDS011;14483;47.844;9.660;2023-04-15T07:45:16;4.18;;;0.70;;
26920;SDS011;14483;47.844;9.660;2023-04-15T07:47:42;5.22;;;0.80;;
26920;SDS011;14483;47.844;9.660;2023-04-15T07:50:09;2.38;;;0.80;;
26920;SDS011;14483;47.844;9.660;2023-04-15T07:52:35;3.00;;;0.93;;
26920;SDS011;14483;47.844;9.660;2023-04-15T07:55:03;3.00;;;0.90;;
26920;SDS011;14483;47.844;9.660;2023-04-15T07:57:30;6.03;;;1.00;;
26920;SDS011;14483;47.844;9.660;2023-04-15T07:59:58;2.92;;;0.88;;
26920;SDS011;14483;47.844;9.660;2023-04-15T08:02:24;2.70;;;0.98;;
26920;SDS011;14483;47.844;9.660;2023-04-15T08:04:51;1.42;;;0.60;;
26920;SDS011;14483;47.844;9.660;2023-04-15T08:07:18;2.08;;;0.93;;
26920;SDS011;14483;47.844;9.660;2023-04-15T08:09:44;1.60;;;0.80;;
26920;SDS011;14483;47.844;9.660;2023-04-15T08:12:11;4.15;;;0.88;;
26920;SDS011;14483;47.844;9.660;2023-04-15T08:14:37;3.15;;;1.05;;
26920;SDS011;14483;47.844;9.660;2023-04-15T08:17:05;3.03;;;1.00;;
26920;SDS011;14483;47.844;9.660;2023-04-15T08:19:31;3.92;;;1.20;;
26920;SDS011;14483;47.844;9.660;2023-04-15T08:21:58;4.22;;;1.13;;
26920;SDS011;14483;47.844;9.660;2023-04-15T08:24:24;6.15;;;1.30;;
26920;SDS011;14483;47.844;9.660;2023-04-15T08:26:51;4.10;;;1.23;;
26920;SDS011;14483;47.844;9.660;2023-04-15T08:29:17;4.20;;;1.13;;
26920;SDS011;14483;47.844;9.660;2023-04-15T08:31:44;6.85;;;1.27;;
26920;SDS011;14483;47.844;9.660;2023-04-15T08:34:13;2.25;;;1.02;;
26920;SDS011;14483;47.844;9.660;2023-04-15T08:36:39;4.63;;;1.08;;
26920;SDS011;14483;47.844;9.660;2023-04-15T08:39:06;3.53;;;1.15;;
26920;SDS011;14483;47.844;9.660;2023-04-15T08:41:33;3.03;;;1.58;;
26920;SDS011;14483;47.844;9.660;2023-04-15T08:44:05;2.22;;;0.90;;
26920;SDS011;14483;47.844;9.660;2023-04-15T08:46:31;2.63;;;1.08;;
26920;SDS011;14483;47.844;9.660;2023-04-15T08:48:58;2.63;;;1.10;;
26920;SDS011;14483;47.844;9.660;2023-04-15T08:51:27;4.60;;;1.27;;
26920;SDS011;14483;47.844;9.660;2023-04-15T08:53:53;3.33;;;1.15;;
26920;SDS011;14483;47.844;9.660;2023-04-15T08:56:21;5.18;;;1.27;;
26920;SDS011;14483;47.844;9.660;2023-04-15T08:58:49;3.95;;;1.17;;
26920;SDS011;14483;47.844;9.660;2023-04-15T09:01:16;3.70;;;1.58;;
26920;SDS011;14483;47.844;9.660;2023-04-15T09:03:42;2.33;;;1.25;;
26920;SDS011;14483;47.844;9.660;2023-04-15T09:06:09;5.68;;;1.30;;
26920;SDS011;14483;47.844;9.660;2023-04-15T09:08:37;2.60;;;1.42;;
26920;SDS011;14483;47.844;9.660;2023-04-15T09:11:03;6.10;;;1.67;;
26920;SDS011;14483;47.844;9.660;2023-04-15T09:13:29;7.05;;;2.22;;
26920;SDS011;14483;47.844;9.660;2023-04-15T09:15:56;6.10;;;1.70;;
26920;SDS011;14483;47.844;9.660;2023-04-15T09:18:26;4.70;;;1.88;;
26920;SDS011;14483;47.844;9.660;2023-04-15T09:20:53;7.65;;;1.77;;
26920;SDS011;14483;47.844;9.660;2023-04-15T09:23:20;5.03;;;1.45;;
26920;SDS011;14483;47.844;9.660;2023-04-15T09:25:48;3.58;;;1.30;;
26920;SDS011;14483;47.844;9.660;2023-04-15T09:28:15;3.78;;;1.30;;
26920;SDS011;14483;47.844;9.660;2023-04-15T09:30:50;2.83;;;1.38;;
26920;SDS011;14483;47.844;9.660;2023-04-15T09:33:16;2.05;;;1.10;;
26920;SDS011;14483;47.844;9.660;2023-04-15T09:35:45;3.63;;;0.80;;
26920;SDS011;14483;47.844;9.660;2023-04-15T09:38:21;2.92;;;1.38;;
26920;SDS011;14483;47.844;9.660;2023-04-15T09:40:48;4.40;;;1.50;;
26920;SDS011;14483;47.844;9.660;2023-04-15T09:43:15;2.58;;;1.30;;
26920;SDS011;14483;47.844;9.660;2023-04-15T09:45:46;3.22;;;1.00;;
26920;SDS011;14483;47.844;9.660;2023-04-15T09:48:16;3.20;;;0.90;;
26920;SDS011;14483;47.844;9.660;2023-04-15T09:50:43;8.75;;;0.80;;
26920;SDS011;14483;47.844;9.660;2023-04-15T09:53:09;2.72;;;0.73;;
26920;SDS011;14483;47.844;9.660;2023-04-15T09:55:36;1.42;;;0.60;;
26920;SDS011;14483;47.844;9.660;2023-04-15T09:58:08;2.05;;;0.77;;
26920;SDS011;14483;47.844;9.660;2023-04-15T10:00:42;5.80;;;1.10;;
26920;SDS011;14483;47.844;9.660;2023-04-15T10:03:08;4.30;;;0.80;;
26920;SDS011;14483;47.844;9.660;2023-04-15T10:05:35;4.50;;;0.70;;
26920;SDS011;14483;47.844;9.660;2023-04-15T10:08:02;2.97;;;0.82;;
26920;SDS011;14483;47.844;9.660;2023-04-15T10:10:29;2.60;;;0.65;;
26920;SDS011;14483;47.844;9.660;2023-04-15T10:12:57;3.10;;;0.80;;
26920;SDS011;14483;47.844;9.660;2023-04-15T10:15:25;2.97;;;1.00;;
26920;SDS011;14483;47.844;9.660;2023-04-15T10:17:53;6.15;;;1.05;;
26920;SDS011;14483;47.844;9.660;2023-04-15T10:20:21;2.65;;;0.77;;
26920;SDS011;14483;47.844;9.660;2023-04-15T10:22:48;2.65;;;0.70;;
26920;SDS011;14483;47.844;9.660;2023-04-15T10:25:14;4.05;;;1.00;;
26920;SDS011;14483;47.844;9.660;2023-04-15T10:27:41;3.80;;;1.15;;
26920;SDS011;14483;47.844;9.660;2023-04-15T10:30:07;3.95;;;0.88;;
26920;SDS011;14483;47.844;9.660;2023-04-15T10:32:35;2.67;;;1.15;;
26920;SDS011;14483;47.844;9.660;2023-04-15T10:35:02;4.28;;;0.70;;
26920;SDS011;14483;47.844;9.660;2023-04-15T10:37:33;4.50;;;1.05;;
26920;SDS011;14483;47.844;9.660;2023-04-15T10:40:00;4.85;;;1.05;;
26920;SDS011;14483;47.844;9.660;2023-04-15T10:42:32;1.75;;;0.88;;
26920;SDS011;14483;47.844;9.660;2023-04-15T10:44:58;1.20;;;0.63;;
26920;SDS011;14483;47.844;9.660;2023-04-15T10:47:25;6.28;;;0.85;;
26920;SDS011;14483;47.844;9.660;2023-04-15T10:49:57;2.80;;;0.70;;
26920;SDS011;14483;47.844;9.660;2023-04-15T10:52:24;2.95;;;1.02;;
26920;SDS011;14483;47.844;9.660;2023-04-15T10:55:00;3.92;;;0.95;;
26920;SDS011;14483;47.844;9.660;2023-04-15T10:57:27;3.90;;;0.88;;
26920;SDS011;14483;47.844;9.660;2023-04-15T11:00:00;1.95;;;0.50;;
26920;SDS011;14483;47.844;9.660;2023-04-15T11:02:38;4.32;;;0.80;;
26920;SDS011;14483;47.844;9.660;2023-04-15T11:05:07;1.35;;;0.57;;
26920;SDS011;14483;47.844;9.660;2023-04-15T11:07:35;2.63;;;0.90;;
26920;SDS011;14483;47.844;9.660;2023-04-15T11:10:02;4.43;;;0.90;;
26920;SDS011;14483;47.844;9.660;2023-04-15T11:12:35;2.95;;;0.82;;
26920;SDS011;14483;47.844;9.660;2023-04-15T11:17:43;3.90;;;0.85;;
26920;SDS011;14483;47.844;9.660;2023-04-15T11:20:11;3.05;;;0.90;;
26920;SDS011;14483;47.844;9.660;2023-04-15T11:22:45;4.18;;;0.90;;
26920;SDS011;14483;47.844;9.660;2023-04-15T11:25:15;3.28;;;0.60;;
26920;SDS011;14483;47.844;9.660;2023-04-15T11:27:46;4.20;;;0.73;;
26920;SDS011;14483;47.844;9.660;2023-04-15T11:30:17;3.33;;;1.02;;
26920;SDS011;14483;47.844;9.660;2023-04-15T11:32:45;3.08;;;0.70;;
26920;SDS011;14483;47.844;9.660;2023-04-15T11:35:12;3.55;;;0.85;;
26920;SDS011;14483;47.844;9.660;2023-04-15T11:37:39;4.65;;;1.00;;
26920;SDS011;14483;47.844;9.660;2023-04-15T11:40:06;3.90;;;0.90;;
26920;SDS011;14483;47.844;9.660;2023-04-15T11:42:33;7.50;;;1.33;;
26920;SDS011;14483;47.844;9.660;2023-04-15T11:45:05;2.95;;;0.90;;
26920;SDS011;14483;47.844;9.660;2023-04-15T11:47:31;2.15;;;0.73;;
26920;SDS011;14483;47.844;9.660;2023-04-15T11:52:54;3.20;;;0.70;;
26920;SDS011;14483;47.844;9.660;2023-04-15T11:55:20;3.95;;;0.68;;
26920;SDS011;14483;47.844;9.660;2023-04-15T11:57:47;3.35;;;0.75;;
26920;SDS011;14483;47.844;9.660;2023-04-15T12:00:14;2.40;;;0.90;;
26920;SDS011;14483;47.844;9.660;2023-04-15T12:02:41;4.53;;;0.80;;
26920;SDS011;14483;47.844;9.660;2023-04-15T12:05:08;1.27;;;0.50;;
26920;SDS011;14483;47.844;9.660;2023-04-15T12:10:18;3.40;;;0.63;;
26920;SDS011;14483;47.844;9.660;2023-04-15T12:12:47;4.93;;;0.90;;
26920;SDS011;14483;47.844;9.660;2023-04-15T12:15:14;3.72;;;1.10;;
26920;SDS011;14483;47.844;9.660;2023-04-15T12:17:40;3.65;;;0.70;;
26920;SDS011;14483;47.844;9.660;2023-04-15T12:20:07;5.13;;;1.33;;
26920;SDS011;14483;47.844;9.660;2023-04-15T12:22:36;1.55;;;0.65;;
26920;SDS011;14483;47.844;9.660;2023-04-15T12:25:02;2.13;;;0.70;;
26920;SDS011;14483;47.844;9.660;2023-04-15T12:27:30;6.30;;;0.68;;
26920;SDS011;14483;47.844;9.660;2023-04-15T12:30:02;3.50;;;0.80;;
26920;SDS011;14483;47.844;9.660;2023-04-15T12:32:29;4.45;;;0.82;;
26920;SDS011;14483;47.844;9.660;2023-04-15T12:34:55;1.30;;;0.50;;
26920;SDS011;14483;47.844;9.660;2023-04-15T12:37:22;1.70;;;0.57;;
26920;SDS011;14483;47.844;9.660;2023-04-15T12:39:48;1.67;;;0.60;;
26920;SDS011;14483;47.844;9.660;2023-04-15T12:42:15;3.28;;;0.80;;
26920;SDS011;14483;47.844;9.660;2023-04-15T12:44:43;6.25;;;1.17;;
26920;SDS011;14483;47.844;9.660;2023-04-15T12:47:10;1.45;;;0.63;;
26920;SDS011;14483;47.844;9.660;2023-04-15T12:49:37;5.32;;;0.80;;
26920;SDS011;14483;47.844;9.660;2023-04-15T12:52:04;3.67;;;0.90;;
26920;SDS011;14483;47.844;9.660;2023-04-15T12:54:30;2.22;;;0.50;;
26920;SDS011;14483;47.844;9.660;2023-04-15T12:56:57;1.83;;;0.70;;
26920;SDS011;14483;47.844;9.660;2023-04-15T12:59:24;2.22;;;0.82;;
26920;SDS011;14483;47.844;9.660;2023-04-15T13:01:52;2.00;;;0.70;;
26920;SDS011;14483;47.844;9.660;2023-04-15T13:04:18;1.65;;;0.57;;
26920;SDS011;14483;47.844;9.660;2023-04-15T13:06:45;2.35;;;0.70;;
26920;SDS011;14483;47.844;9.660;2023-04-15T13:09:11;3.17;;;0.77;;
26920;SDS011;14483;47.844;9.660;2023-04-15T13:11:38;2.17;;;0.70;;
26920;SDS011;14483;47.844;9.660;2023-04-15T13:14:05;3.90;;;0.90;;
26920;SDS011;14483;47.844;9.660;2023-04-15T13:16:32;3.92;;;1.05;;
26920;SDS011;14483;47.844;9.660;2023-04-15T13:19:00;4.82;;;0.90;;
26920;SDS011;14483;47.844;9.660;2023-04-15T13:21:27;2.13;;;0.95;;
26920;SDS011;14483;47.844;9.660;2023-04-15T13:23:53;2.38;;;0.90;;
26920;SDS011;14483;47.844;9.660;2023-04-15T13:26:20;5.80;;;0.80;;
26920;SDS011;14483;47.844;9.660;2023-04-15T13:28:46;2.13;;;0.60;;
26920;SDS011;14483;47.844;9.660;2023-04-15T13:31:12;3.33;;;0.80;;
26920;SDS011;14483;47.844;9.660;2023-04-15T13:33:39;5.28;;;1.10;;
26920;SDS011;14483;47.844;9.660;2023-04-15T13:36:07;4.22;;;0.80;;
26920;SDS011;14483;47.844;9.660;2023-04-15T13:38:33;2.33;;;0.70;;
26920;SDS011;14483;47.844;9.660;2023-04-15T13:41:00;2.38;;;0.60;;
26920;SDS011;14483;47.844;9.660;2023-04-15T13:43:26;2.38;;;0.60;;
26920;SDS011;14483;47.844;9.660;2023-04-15T13:45:53;1.42;;;0.50;;
26920;SDS011;14483;47.844;9.660;2023-04-15T13:48:19;4.43;;;0.70;;
26920;SDS011;14483;47.844;9.660;2023-04-15T13:50:45;4.22;;;0.90;;
26920;SDS011;14483;47.844;9.660;2023-04-15T13:53:13;2.88;;;1.10;;
26920;SDS011;14483;47.844;9.660;2023-04-15T13:55:39;3.10;;;0.55;;
26920;SDS011;14483;47.844;9.660;2023-04-15T13:58:06;2.55;;;0.75;;
26920;SDS011;14483;47.844;9.660;2023-04-15T14:00:33;6.07;;;0.90;;
26920;SDS011;14483;47.844;9.660;2023-04-15T14:02:59;3.67;;;0.70;;
26920;SDS011;14483;47.844;9.660;2023-04-15T14:05:25;4.15;;;0.70;;
26920;SDS011;14483;47.844;9.660;2023-04-15T14:07:52;3.00;;;0.93;;
26920;SDS011;14483;47.844;9.660;2023-04-15T14:10:20;2.80;;;0.60;;
26920;SDS011;14483;47.844;9.660;2023-04-15T14:12:46;3.90;;;0.73;;
26920;SDS011;14483;47.844;9.660;2023-04-15T14:15:12;3.80;;;0.93;;
26920;SDS011;14483;47.844;9.660;2023-04-15T14:17:39;1.90;;;0.70;;
26920;SDS011;14483;47.844;9.660;2023-04-15T14:20:06;2.35;;;0.60;;
26920;SDS011;14483;47.844;9.660;2023-04-15T14:22:33;4.28;;;0.70;;
26920;SDS011;14483;47.844;9.660;2023-04-15T14:24:59;3.17;;;0.80;;
26920;SDS011;14483;47.844;9.660;2023-04-15T14:27:27;4.43;;;1.00;;
26920;SDS011;14483;47.844;9.660;2023-04-15T14:29:54;7.97;;;1.08;;
26920;SDS011;14483;47.844;9.660;2023-04-15T14:32:21;3.50;;;0.93;;
26920;SDS011;14483;47.844;9.660;2023-04-15T14:34:48;4.60;;;0.82;;
26920;SDS011;14483;47.844;9.660;2023-04-15T14:37:14;2.92;;;0.80;;
26920;SDS011;14483;47.844;9.660;2023-04-15T14:39:41;7.00;;;0.85;;
26920;SDS011;14483;47.844;9.660;2023-04-15T14:42:07;3.80;;;1.00;;
26920;SDS011;14483;47.844;9.660;2023-04-15T14:44:35;6.00;;;0.80;;
26920;SDS011;14483;47.844;9.660;2023-04-15T14:47:01;2.53;;;0.70;;
26920;SDS011;14483;47.844;9.660;2023-04-15T14:49:28;3.10;;;0.70;;
26920;SDS011;14483;47.844;9.660;2023-04-15T14:51:54;5.57;;;0.90;;
26920;SDS011;14483;47.844;9.660;2023-04-15T14:54:20;3.28;;;0.85;;